createdAt,value
2016-07-27T00:01:17.668Z,20.8
2016-07-27T00:16:17.712Z,20.6
2016-07-27T00:31:13.154Z,20.1
2016-07-27T00:46:13.110Z,19.6
2016-07-27T01:01:13.114Z,19.1
2016-07-27T01:16:13.127Z,18.8
2016-07-27T01:31:13.189Z,18.7
2016-07-27T01:46:13.146Z,18.5
2016-07-27T02:01:13.157Z,18.4
2016-07-27T02:16:14.834Z,18.3
2016-07-27T02:31:13.230Z,18.1
2016-07-27T02:46:18.619Z,17.9
2016-07-27T03:01:17.811Z,17.7
2016-07-27T03:16:23.443Z,17.6
2016-07-27T03:31:13.255Z,17.6
2016-07-27T03:46:15.230Z,17.5
2016-07-27T04:01:13.242Z,17.3
2016-07-27T04:16:19.849Z,17.2
2016-07-27T04:31:13.302Z,17.2
2016-07-27T04:46:13.262Z,17.2
2016-07-27T05:01:13.274Z,17.3
2016-07-27T05:16:13.290Z,17.4
2016-07-27T05:31:17.922Z,17.4
2016-07-27T05:46:13.292Z,17.5
2016-07-27T06:01:17.932Z,17.5
2016-07-27T06:16:13.309Z,17.5
2016-07-27T06:31:13.320Z,17.7
2016-07-27T06:46:15.367Z,17.8
2016-07-27T07:01:13.341Z,17.8
2016-07-27T07:16:13.341Z,18
2016-07-27T07:31:34.496Z,18.1
2016-07-27T07:46:17.992Z,18.7
2016-07-27T08:01:13.360Z,19.5
2016-07-27T08:16:13.373Z,19.2
2016-07-27T08:31:18.309Z,20.2
2016-07-27T08:46:18.462Z,20.4
2016-07-27T09:01:17.958Z,21.3
2016-07-27T09:16:13.369Z,21.4
2016-07-27T09:31:13.371Z,20.8
2016-07-27T09:46:15.398Z,20.7
2016-07-27T10:01:15.412Z,21.4
2016-07-27T10:16:19.721Z,22.2
2016-07-27T10:31:19.520Z,22.8
2016-07-27T10:46:18.396Z,22.1
2016-07-27T11:01:15.469Z,22.6
2016-07-27T11:16:18.377Z,23.5
2016-07-27T11:31:24.352Z,23.8
2016-07-27T11:46:20.078Z,24
2016-07-27T12:01:22.644Z,24.1
2016-07-27T12:16:13.449Z,23.6
2016-07-27T12:31:13.459Z,24.1
2016-07-27T12:46:13.468Z,24.5
2016-07-27T13:01:13.479Z,24.7
2016-07-27T13:16:13.539Z,25
2016-07-27T13:31:13.469Z,24.8
2016-07-27T13:46:16.426Z,24.4
2016-07-27T14:01:13.482Z,24.5
2016-07-27T14:16:13.533Z,24
2016-07-27T14:31:13.494Z,24
2016-07-27T14:46:18.108Z,24.1
2016-07-27T15:01:13.509Z,23.8
2016-07-27T15:16:19.772Z,23.9
2016-07-27T15:31:18.122Z,23.7
2016-07-27T15:46:13.543Z,24
2016-07-27T16:01:13.551Z,23.8
2016-07-27T16:16:18.144Z,23.6
2016-07-27T16:31:19.915Z,23.6
2016-07-27T16:46:15.566Z,23.5
2016-07-27T17:01:13.574Z,23.4
2016-07-27T17:16:15.579Z,23.3
2016-07-27T17:31:29.973Z,23.2
2016-07-27T17:46:15.611Z,22.9
2016-07-27T18:01:26.339Z,22.7
2016-07-27T18:16:18.189Z,22.4
2016-07-27T18:31:13.611Z,22.2
2016-07-27T18:46:18.277Z,22
2016-07-27T19:01:13.626Z,21.7
2016-07-27T19:16:18.661Z,21.4
2016-07-27T19:31:18.568Z,21.2
2016-07-27T19:46:15.642Z,20.9
2016-07-27T20:01:18.628Z,20.5
2016-07-27T20:16:18.283Z,20.2
2016-07-27T20:31:18.711Z,19.9
2016-07-27T20:46:18.708Z,19.8
2016-07-27T21:01:20.034Z,19.8
2016-07-27T21:16:24.016Z,19.7
2016-07-27T21:31:15.703Z,19.5
2016-07-27T21:46:20.055Z,19.3
2016-07-27T22:01:19.969Z,19.2
2016-07-27T22:16:23.841Z,19.2
2016-07-27T22:46:18.329Z,19.2
2016-07-27T23:01:24.110Z,19.2
2016-07-27T23:16:13.750Z,19.2
2016-07-27T23:31:13.765Z,19.3
2016-07-27T23:46:13.778Z,19.3
